Terminal Aerodrome Forecast
Issued by NWS

Home | Current Version | Previous Version | Text Only | Print | Product List | Glossary On
Versions: 1 2 3 4 5 6 7 8 9 10 11 12
069
FTUS42 TJSJ 251740
TAFJPS
TAF
TJPS 251740Z 2518/2618 15012KT P6SM SCT035
     FM252300 11007KT P6SM FEW035
     FM261500 16012KT P6SM VCTS SCT030CB SCT060
      AMD NOT SKED TIL 260300=

USA.gov is the U.S. government's official web portal to all federal, state and local government web resources and services.